Time;durP1;ratioP1;P1;durP2;ratioP2;P2;SDS_P1;SDS_P2;PMS_P1;PMS_P2;Temp;Humidity;BMP_temperature;BMP_pressure;BME280_temperature;BME280_humidity;BME280_pressure;Samples;Min_cycle;Max_cycle;Signal;HPM_P1;HPM_P2
2022/09/25 00:00:32;;;;;;;5.20;4.70;;;11.30;82.80;;;;;;4998062;28;20184;-60
2022/09/25 00:02:58;;;;;;;6.77;5.80;;;11.30;82.70;;;;;;5047935;28;20218;-60
2022/09/25 00:05:24;;;;;;;9.87;6.60;;;11.30;82.90;;;;;;5039930;28;20203;-60
2022/09/25 00:07:50;;;;;;;7.53;5.70;;;11.30;83.00;;;;;;5008086;28;20193;-60
2022/09/25 00:10:16;;;;;;;7.90;5.80;;;11.30;83.30;;;;;;5025011;28;20215;-60
2022/09/25 00:12:42;;;;;;;6.53;5.20;;;11.30;83.10;;;;;;5039387;28;20176;-60
2022/09/25 00:15:08;;;;;;;7.03;5.90;;;11.30;82.90;;;;;;5031303;28;20188;-60
2022/09/25 00:17:33;;;;;;;6.03;5.43;;;11.20;83.30;;;;;;5026264;28;20237;-60
2022/09/25 00:19:59;;;;;;;6.83;5.70;;;11.30;83.20;;;;;;5037966;28;20184;-60
2022/09/25 00:22:25;;;;;;;9.07;5.70;;;11.30;82.90;;;;;;5038523;28;20196;-60
2022/09/25 00:24:51;;;;;;;7.23;6.30;;;11.30;82.80;;;;;;5026403;28;20190;-60
2022/09/25 00:27:18;;;;;;;7.13;5.77;;;11.30;82.90;;;;;;5005917;28;20184;-60
2022/09/25 00:29:46;;;;;;;7.43;5.83;;;11.30;82.90;;;;;;5057848;28;20195;-60
2022/09/25 00:32:12;;;;;;;6.10;5.53;;;11.30;83.10;;;;;;5044257;28;20191;-60
2022/09/25 00:34:38;;;;;;;6.40;5.77;;;11.30;82.90;;;;;;5008245;28;20243;-60
2022/09/25 00:37:05;;;;;;;5.90;5.30;;;11.30;82.90;;;;;;5024681;28;20184;-60
2022/09/25 00:39:32;;;;;;;6.17;5.57;;;11.30;83.10;;;;;;5024943;28;20183;-60
2022/09/25 00:41:58;;;;;;;5.90;5.40;;;11.30;82.90;;;;;;5011682;28;20180;-62
2022/09/25 00:44:45;;;;;;;6.17;5.57;;;11.30;82.90;;;;;;5039432;28;20242;-61
2022/09/25 00:47:14;;;;;;;5.10;4.60;;;11.40;83.00;;;;;;5007711;28;20239;-60
2022/09/25 00:49:41;;;;;;;6.20;5.30;;;11.40;83.10;;;;;;5033715;28;20206;-61
2022/09/25 00:52:11;;;;;;;5.63;5.13;;;11.40;82.90;;;;;;5019190;28;20184;-61
2022/09/25 00:54:47;;;;;;;5.60;5.10;;;11.40;82.90;;;;;;5032945;28;20275;-61
2022/09/25 00:57:17;;;;;;;5.93;5.00;;;11.40;82.90;;;;;;5006144;28;20192;-61
2022/09/25 00:59:47;;;;;;;5.47;4.67;;;11.30;82.70;;;;;;5003236;28;20191;-61
2022/09/25 01:02:19;;;;;;;8.00;5.13;;;11.30;82.60;;;;;;5039558;28;20180;-61
2022/09/25 01:04:46;;;;;;;6.03;5.30;;;11.30;82.70;;;;;;5005648;28;20335;-61
2022/09/25 01:07:13;;;;;;;6.30;5.27;;;11.30;82.70;;;;;;5011257;28;20188;-61
2022/09/25 01:09:39;;;;;;;7.20;5.90;;;11.30;82.60;;;;;;5009190;28;20193;-61
2022/09/25 01:12:06;;;;;;;6.03;5.17;;;11.30;82.60;;;;;;5023306;28;20247;-61
2022/09/25 01:14:33;;;;;;;5.90;5.00;;;11.20;83.00;;;;;;4999073;28;20192;-61
2022/09/25 01:17:37;;;;;;;5.97;5.10;;;11.20;82.80;;;;;;5008035;28;20669;-61
2022/09/25 01:20:32;;;;;;;7.30;5.37;;;11.20;82.60;;;;;;5002192;28;20210;-61
2022/09/25 01:23:36;;;;;;;5.33;4.90;;;11.00;83.30;;;;;;5006242;28;20185;-61
2022/09/25 01:26:18;;;;;;;5.80;4.83;;;11.00;83.20;;;;;;5053025;28;20187;-61
2022/09/25 01:29:02;;;;;;;5.30;4.80;;;11.00;83.30;;;;;;5033734;28;20272;-61
2022/09/25 01:31:41;;;;;;;7.27;4.90;;;11.10;83.30;;;;;;5045097;28;20203;-61
2022/09/25 01:34:28;;;;;;;13.23;5.07;;;11.10;82.90;;;;;;4998514;28;20228;-61
2022/09/25 01:37:18;;;;;;;6.67;5.30;;;11.10;82.90;;;;;;5005009;28;20183;-61
2022/09/25 01:39:47;;;;;;;11.63;5.30;;;11.20;82.90;;;;;;5001046;28;20188;-60
2022/09/25 01:42:21;;;;;;;6.43;5.30;;;11.20;83.00;;;;;;5000089;28;20192;-60
2022/09/25 01:45:04;;;;;;;5.93;5.33;;;11.10;83.00;;;;;;5006883;28;20243;-60
2022/09/25 01:47:37;;;;;;;7.13;5.00;;;11.10;83.10;;;;;;4998341;28;20194;-61
2022/09/25 01:50:08;;;;;;;8.70;5.67;;;11.10;83.20;;;;;;5004702;28;20212;-61
2022/09/25 01:52:42;;;;;;;7.23;5.40;;;11.10;83.20;;;;;;5004807;28;20271;-60
2022/09/25 01:55:21;;;;;;;6.47;5.37;;;11.10;83.40;;;;;;4997808;28;20209;-60
2022/09/25 01:57:56;;;;;;;5.97;5.37;;;11.10;83.40;;;;;;5002953;28;20184;-60
2022/09/25 02:00:24;;;;;;;6.47;5.30;;;11.10;83.30;;;;;;5034773;28;20192;-60
2022/09/25 02:03:05;;;;;;;6.67;4.90;;;11.20;83.30;;;;;;5004153;28;20195;-61
2022/09/25 02:05:45;;;;;;;5.33;4.83;;;11.10;83.40;;;;;;4999357;28;20185;-60
2022/09/25 02:08:38;;;;;;;8.83;5.30;;;11.10;83.50;;;;;;5011309;28;20187;-60
2022/09/25 02:11:05;;;;;;;5.30;4.80;;;11.00;83.80;;;;;;5042209;28;20216;-60
2022/09/25 02:13:49;;;;;;;6.87;5.47;;;11.10;83.80;;;;;;5029311;28;20189;-60
2022/09/25 02:16:34;;;;;;;5.70;5.07;;;11.20;83.70;;;;;;5006239;28;20266;-60
2022/09/25 02:22:11;;;;;;;5.70;5.20;;;11.30;83.60;;;;;;5039033;28;20223;-60
2022/09/25 02:24:47;;;;;;;5.53;5.03;;;11.20;83.70;;;;;;5001804;28;20224;-60
2022/09/25 02:27:14;;;;;;;5.97;4.87;;;11.20;83.70;;;;;;5009375;28;20203;-60
2022/09/25 02:29:41;;;;;;;6.90;5.53;;;11.30;83.90;;;;;;5017467;28;20248;-61
2022/09/25 02:32:24;;;;;;;6.70;5.30;;;11.30;83.70;;;;;;5010125;28;20177;-61
2022/09/25 02:34:50;;;;;;;6.97;4.73;;;11.30;83.70;;;;;;4997892;28;20298;-61
2022/09/25 02:37:17;;;;;;;6.47;5.10;;;11.40;83.80;;;;;;5039310;28;20191;-61
2022/09/25 02:39:48;;;;;;;5.77;5.20;;;11.40;83.80;;;;;;5039369;28;20180;-61
2022/09/25 02:42:47;;;;;;;9.13;5.80;;;11.50;83.70;;;;;;5037880;28;20186;-61
2022/09/25 02:45:38;;;;;;;6.30;5.33;;;11.50;83.70;;;;;;5003763;28;20196;-61
2022/09/25 02:48:27;;;;;;;5.83;5.27;;;11.50;83.80;;;;;;5046964;28;20194;-60
2022/09/25 02:51:01;;;;;;;5.73;5.13;;;11.40;84.20;;;;;;4996478;28;20200;-60
2022/09/25 02:53:43;;;;;;;5.57;4.90;;;11.50;84.10;;;;;;5045557;28;20183;-60
2022/09/25 02:56:24;;;;;;;7.93;5.47;;;11.50;84.90;;;;;;5032917;28;20177;-61
2022/09/25 02:58:53;;;;;;;6.00;5.40;;;11.50;85.40;;;;;;5005140;28;20187;-61
2022/09/25 03:01:23;;;;;;;6.17;5.57;;;11.50;85.80;;;;;;4999352;28;20191;-61
2022/09/25 03:03:51;;;;;;;6.50;5.90;;;11.40;86.30;;;;;;5012875;28;20234;-62
2022/09/25 03:06:18;;;;;;;8.03;6.23;;;11.40;86.70;;;;;;5003264;28;20230;-60
2022/09/25 03:08:48;;;;;;;7.13;6.43;;;11.40;87.00;;;;;;5028808;28;20198;-61
2022/09/25 03:11:18;;;;;;;6.87;6.17;;;11.30;87.50;;;;;;5005064;28;20242;-61
2022/09/25 03:13:45;;;;;;;7.43;6.03;;;11.20;87.90;;;;;;5002905;28;20181;-61
2022/09/25 03:16:25;;;;;;;6.07;5.57;;;11.20;88.10;;;;;;5015441;28;20188;-61
2022/09/25 03:18:51;;;;;;;7.30;6.70;;;11.30;88.60;;;;;;5035830;28;20212;-61
2022/09/25 03:21:16;;;;;;;6.90;6.30;;;11.30;88.60;;;;;;5027848;28;20219;-61
2022/09/25 03:23:42;;;;;;;7.00;6.40;;;11.30;88.70;;;;;;5036497;28;20215;-61
2022/09/25 03:26:08;;;;;;;7.50;6.80;;;11.30;88.80;;;;;;5023237;28;20181;-61
2022/09/25 03:28:34;;;;;;;7.40;6.43;;;11.40;88.90;;;;;;5017065;28;20181;-61
2022/09/25 03:31:05;;;;;;;7.97;6.57;;;11.30;89.00;;;;;;5027336;28;20219;-61
2022/09/25 03:33:40;;;;;;;8.03;7.10;;;11.40;89.00;;;;;;5012437;28;20185;-61
2022/09/25 03:36:12;;;;;;;7.27;6.57;;;11.30;88.90;;;;;;5000385;28;20203;-61
2022/09/25 03:38:40;;;;;;;7.23;6.37;;;11.30;89.00;;;;;;5007013;28;20180;-61
2022/09/25 03:41:07;;;;;;;7.30;6.60;;;11.30;89.10;;;;;;5011234;28;20191;-61
2022/09/25 03:43:37;;;;;;;7.90;6.83;;;11.30;89.10;;;;;;5009518;28;20187;-61
2022/09/25 03:46:05;;;;;;;8.07;6.80;;;11.30;89.30;;;;;;5006778;28;20180;-61
2022/09/25 03:48:31;;;;;;;9.17;8.27;;;11.30;89.10;;;;;;5012861;28;20185;-61
2022/09/25 03:50:57;;;;;;;8.43;7.23;;;11.30;89.20;;;;;;5005368;28;20204;-61
2022/09/25 03:53:24;;;;;;;9.37;7.33;;;11.30;89.30;;;;;;5026040;28;20195;-61
2022/09/25 03:55:50;;;;;;;8.63;6.60;;;11.30;89.30;;;;;;5024260;28;20215;-61
2022/09/25 03:58:16;;;;;;;7.93;7.13;;;11.30;89.30;;;;;;5036085;28;20220;-61
2022/09/25 04:00:44;;;;;;;7.50;6.73;;;11.30;89.30;;;;;;5029464;28;20223;-61
2022/09/25 04:03:13;;;;;;;7.97;7.17;;;11.30;89.50;;;;;;5000415;28;20187;-62
2022/09/25 04:05:41;;;;;;;7.70;6.90;;;11.30;89.60;;;;;;4996891;28;20184;-61
2022/09/25 04:08:06;;;;;;;7.37;6.67;;;11.30;89.40;;;;;;5022105;28;20245;-62
2022/09/25 04:10:37;;;;;;;7.53;6.47;;;11.30;89.30;;;;;;5013563;28;20212;-62
2022/09/25 04:13:07;;;;;;;10.13;6.90;;;11.30;89.50;;;;;;5020423;28;20192;-63
2022/09/25 04:15:33;;;;;;;8.47;7.67;;;11.30;89.50;;;;;;5008758;28;20184;-62
2022/09/25 04:17:59;;;;;;;7.83;7.00;;;11.30;89.40;;;;;;5042548;28;20188;-61
2022/09/25 04:20:25;;;;;;;8.87;6.77;;;11.30;89.40;;;;;;5028675;28;20188;-61
2022/09/25 04:22:50;;;;;;;8.10;6.97;;;11.30;89.50;;;;;;5022084;28;20236;-61
2022/09/25 04:25:16;;;;;;;8.27;7.40;;;11.30;89.60;;;;;;5012829;28;20287;-61
2022/09/25 04:27:45;;;;;;;8.30;6.67;;;11.30;89.70;;;;;;5002047;28;20266;-61
2022/09/25 04:30:11;;;;;;;7.90;7.10;;;11.30;89.90;;;;;;5003520;28;20211;-62
2022/09/25 04:35:21;;;;;;;7.67;6.87;;;11.30;90.00;;;;;;5040049;28;20334;-61
2022/09/25 04:37:46;;;;;;;8.37;7.50;;;11.30;90.00;;;;;;5012467;28;20260;-62
2022/09/25 04:40:12;;;;;;;8.90;7.27;;;11.30;90.10;;;;;;5037384;28;20201;-62
2022/09/25 04:42:38;;;;;;;7.70;7.00;;;11.30;90.20;;;;;;5007849;28;20188;-61
2022/09/25 04:45:05;;;;;;;10.40;7.60;;;11.30;90.40;;;;;;5039561;28;20223;-61
2022/09/25 04:47:30;;;;;;;7.70;6.50;;;11.30;90.40;;;;;;5028418;28;20184;-61
2022/09/25 04:49:56;;;;;;;8.43;7.53;;;11.30;90.40;;;;;;5034952;28;20227;-61
2022/09/25 04:52:22;;;;;;;7.80;7.10;;;11.30;90.50;;;;;;5006158;28;20184;-62
2022/09/25 04:54:48;;;;;;;10.07;7.53;;;11.30;90.90;;;;;;5035436;28;20194;-62
2022/09/25 04:57:20;;;;;;;9.43;7.20;;;11.30;91.00;;;;;;5007261;28;20176;-61
2022/09/25 04:59:47;;;;;;;8.87;7.57;;;11.30;91.30;;;;;;5009275;28;20190;-61
2022/09/25 05:02:14;;;;;;;8.13;7.43;;;11.30;91.30;;;;;;5012784;28;20189;-61
2022/09/25 05:04:39;;;;;;;9.47;7.80;;;11.30;92.00;;;;;;5008171;28;20225;-66
2022/09/25 05:07:06;;;;;;;13.47;9.43;;;11.30;92.70;;;;;;5016544;28;20279;-65
2022/09/25 05:09:31;;;;;;;9.37;8.47;;;11.20;93.20;;;;;;4996229;28;20176;-64
2022/09/25 05:11:57;;;;;;;13.57;9.00;;;11.30;93.60;;;;;;5019232;28;20188;-63
2022/09/25 05:14:24;;;;;;;9.80;8.80;;;11.30;93.80;;;;;;5032376;28;20193;-63
2022/09/25 05:16:51;;;;;;;11.83;9.20;;;11.30;94.00;;;;;;4998943;28;20176;-63
2022/09/25 05:19:17;;;;;;;12.77;10.20;;;11.30;94.20;;;;;;5016215;28;20188;-63
2022/09/25 05:21:43;;;;;;;10.60;9.30;;;11.30;94.30;;;;;;5006599;28;20192;-63
2022/09/25 05:24:09;;;;;;;11.30;9.80;;;11.30;94.30;;;;;;5013499;28;20195;-63
2022/09/25 05:26:36;;;;;;;11.47;10.33;;;11.30;94.40;;;;;;5020038;28;20196;-63
2022/09/25 05:29:03;;;;;;;13.00;10.07;;;11.30;94.50;;;;;;5024055;28;20224;-63
2022/09/25 05:31:30;;;;;;;11.40;10.13;;;11.30;94.60;;;;;;5007456;28;20223;-63
2022/09/25 05:33:56;;;;;;;11.90;10.40;;;11.30;94.60;;;;;;5002783;28;20176;-63
2022/09/25 05:36:22;;;;;;;11.67;10.50;;;11.30;94.50;;;;;;5039864;28;20184;-63
2022/09/25 05:38:47;;;;;;;14.30;11.27;;;11.30;94.70;;;;;;5002892;28;20200;-63
2022/09/25 05:41:13;;;;;;;12.23;10.87;;;11.40;94.80;;;;;;5018371;28;20192;-63
2022/09/25 05:43:42;;;;;;;11.17;10.03;;;11.30;94.80;;;;;;5016455;28;20201;-63
2022/09/25 05:46:09;;;;;;;14.60;10.83;;;11.30;94.80;;;;;;5002966;28;20311;-62
2022/09/25 05:48:35;;;;;;;16.17;11.60;;;11.30;94.90;;;;;;5008041;28;20188;-62
2022/09/25 05:51:01;;;;;;;11.70;10.33;;;11.30;95.00;;;;;;4999148;28;20283;-62
2022/09/25 05:53:29;;;;;;;13.03;10.67;;;11.30;95.00;;;;;;5008875;28;20215;-63
2022/09/25 05:56:00;;;;;;;12.83;11.53;;;11.30;95.10;;;;;;5001165;28;20211;-63
2022/09/25 05:58:27;;;;;;;11.37;9.90;;;11.40;95.10;;;;;;5032358;28;20176;-63
2022/09/25 06:00:56;;;;;;;12.57;11.17;;;11.30;95.10;;;;;;5014417;28;20271;-63
2022/09/25 06:03:21;;;;;;;13.83;11.30;;;11.30;95.10;;;;;;5002898;28;20223;-63
2022/09/25 06:05:48;;;;;;;11.17;9.97;;;11.30;95.20;;;;;;5019876;28;20236;-63
2022/09/25 06:08:14;;;;;;;12.37;11.07;;;11.40;95.20;;;;;;5018829;28;20199;-62
2022/09/25 06:10:41;;;;;;;11.83;10.63;;;11.40;95.30;;;;;;5025551;28;20215;-63
2022/09/25 06:13:07;;;;;;;14.87;10.70;;;11.30;95.30;;;;;;5035405;28;20188;-62
2022/09/25 06:15:39;;;;;;;13.23;11.00;;;11.30;95.30;;;;;;5023250;28;20188;-62
2022/09/25 06:18:05;;;;;;;13.13;11.33;;;11.30;95.30;;;;;;5001706;28;20184;-63
2022/09/25 06:20:31;;;;;;;13.60;11.70;;;11.30;95.30;;;;;;4999857;28;20201;-62
2022/09/25 06:22:58;;;;;;;14.93;12.77;;;11.40;95.40;;;;;;5007456;28;20210;-62
2022/09/25 06:25:26;;;;;;;12.57;11.27;;;11.40;95.40;;;;;;5001886;28;20219;-63
2022/09/25 06:27:53;;;;;;;15.67;12.17;;;11.40;95.50;;;;;;5008703;28;20189;-62
2022/09/25 06:30:20;;;;;;;15.33;12.00;;;11.50;95.50;;;;;;5045000;28;20207;-62
2022/09/25 06:32:46;;;;;;;13.23;11.93;;;11.50;95.50;;;;;;5024689;28;20184;-62
2022/09/25 06:35:13;;;;;;;13.27;11.87;;;11.50;95.60;;;;;;5016422;28;20240;-62
2022/09/25 06:37:39;;;;;;;12.00;10.80;;;11.50;95.60;;;;;;5031396;28;20219;-62
2022/09/25 06:40:05;;;;;;;13.13;10.77;;;11.50;95.70;;;;;;5031882;28;20313;-62
2022/09/25 06:42:33;;;;;;;13.03;11.23;;;11.40;95.70;;;;;;5025441;28;20271;-62
2022/09/25 06:45:02;;;;;;;13.47;11.33;;;11.40;95.70;;;;;;4996537;28;20192;-61
2022/09/25 06:47:27;;;;;;;13.23;11.47;;;11.50;95.70;;;;;;5035103;28;20193;-63
2022/09/25 06:49:53;;;;;;;16.57;11.97;;;11.60;95.70;;;;;;5025993;28;20247;-63
2022/09/25 06:52:19;;;;;;;13.80;12.20;;;11.60;95.80;;;;;;5009186;28;20188;-63
2022/09/25 06:54:45;;;;;;;14.63;11.33;;;11.60;95.80;;;;;;5033925;28;20192;-62
2022/09/25 06:57:11;;;;;;;16.40;14.70;;;11.60;95.80;;;;;;5020226;28;20192;-63
2022/09/25 06:59:37;;;;;;;18.87;16.87;;;11.60;95.80;;;;;;5016370;28;20206;-63
2022/09/25 07:04:50;;;;;;;14.43;13.00;;;11.60;95.80;;;;;;5005449;28;20199;-63
2022/09/25 07:07:19;;;;;;;14.27;12.40;;;11.70;95.90;;;;;;5004210;28;20191;-63
2022/09/25 07:09:49;;;;;;;15.17;13.57;;;11.60;95.80;;;;;;5037428;28;20195;-63
2022/09/25 07:12:16;;;;;;;15.13;13.27;;;11.60;95.80;;;;;;5045386;28;20180;-63
2022/09/25 07:14:43;;;;;;;16.87;13.13;;;11.60;95.80;;;;;;5002636;28;20197;-63
2022/09/25 07:17:09;;;;;;;19.83;14.60;;;11.60;95.90;;;;;;5002089;28;20200;-63
2022/09/25 07:19:34;;;;;;;17.43;14.23;;;11.70;95.90;;;;;;5013490;28;20230;-63
2022/09/25 07:22:00;;;;;;;16.20;13.17;;;11.70;95.90;;;;;;5025348;28;20623;-63
2022/09/25 07:24:26;;;;;;;14.70;13.20;;;11.70;95.90;;;;;;5034972;28;20196;-62
2022/09/25 07:26:52;;;;;;;17.20;14.03;;;11.70;95.90;;;;;;5022674;28;20191;-62
2022/09/25 07:29:18;;;;;;;19.03;15.73;;;11.70;95.90;;;;;;4994659;28;20195;-60
2022/09/25 07:31:44;;;;;;;14.77;12.70;;;11.80;96.00;;;;;;5004123;28;20216;-62
2022/09/25 07:34:10;;;;;;;17.27;13.23;;;11.70;96.00;;;;;;4997600;28;20231;-62
2022/09/25 07:36:41;;;;;;;13.60;12.20;;;11.70;95.90;;;;;;4999160;28;20283;-62
2022/09/25 07:39:07;;;;;;;14.07;12.67;;;11.60;95.90;;;;;;5026652;28;20188;-62
2022/09/25 07:41:33;;;;;;;15.80;13.00;;;11.70;95.90;;;;;;5004491;28;20189;-63
2022/09/25 07:43:59;;;;;;;15.13;13.60;;;11.70;95.90;;;;;;5015403;28;20202;-62
2022/09/25 07:46:26;;;;;;;17.00;14.13;;;11.70;95.90;;;;;;4998508;28;20199;-62
2022/09/25 07:48:52;;;;;;;17.00;15.20;;;11.70;95.90;;;;;;5015987;28;20196;-62
2022/09/25 07:51:20;;;;;;;16.23;14.63;;;11.80;95.90;;;;;;5010453;28;20223;-62
2022/09/25 07:53:46;;;;;;;16.20;14.00;;;11.80;95.90;;;;;;5001077;28;20215;-64
2022/09/25 07:56:12;;;;;;;17.10;14.23;;;11.80;95.90;;;;;;5000372;28;20227;-62
2022/09/25 07:58:38;;;;;;;16.03;14.37;;;11.80;95.90;;;;;;5022665;28;20202;-62
2022/09/25 08:01:06;;;;;;;16.57;13.67;;;11.80;95.80;;;;;;5002640;28;20193;-62
2022/09/25 08:03:32;;;;;;;15.40;11.73;;;11.80;95.80;;;;;;5033132;28;20218;-62
2022/09/25 08:06:00;;;;;;;16.40;11.53;;;11.60;95.70;;;;;;5024417;28;20230;-63
2022/09/25 08:08:29;;;;;;;16.13;13.00;;;11.50;95.70;;;;;;4995778;28;20188;-63
2022/09/25 08:11:07;;;;;;;16.43;12.53;;;11.40;95.70;;;;;;4998488;28;20300;-63
2022/09/25 08:13:34;;;;;;;14.83;13.33;;;11.50;95.80;;;;;;5035369;28;20187;-63
2022/09/25 08:16:12;;;;;;;17.60;14.47;;;11.60;95.80;;;;;;5041832;28;20187;-63
2022/09/25 08:18:41;;;;;;;20.07;15.97;;;11.60;96.00;;;;;;5028056;28;20207;-63
2022/09/25 08:21:08;;;;;;;20.73;15.67;;;11.70;96.10;;;;;;5039858;28;20193;-64
2022/09/25 08:23:34;;;;;;;19.40;15.50;;;11.80;96.20;;;;;;5019619;28;20245;-63
2022/09/25 08:26:00;;;;;;;19.97;16.63;;;11.80;96.30;;;;;;4998849;28;20193;-62
2022/09/25 08:28:27;;;;;;;21.47;17.03;;;11.80;96.40;;;;;;5023197;28;20263;-64
2022/09/25 08:30:53;;;;;;;20.60;17.10;;;11.90;96.40;;;;;;5004464;28;20231;-62
2022/09/25 08:33:18;;;;;;;19.73;16.33;;;11.90;96.40;;;;;;5010616;28;20184;-63
2022/09/25 08:35:57;;;;;;;20.20;15.53;;;11.90;96.40;;;;;;5041794;28;20246;-65
2022/09/25 08:38:23;;;;;;;18.03;15.73;;;11.90;96.40;;;;;;5043477;28;20183;-65
2022/09/25 08:40:59;;;;;;;19.07;16.23;;;11.90;96.40;;;;;;5018605;28;20203;-65
2022/09/25 08:43:26;;;;;;;21.03;15.83;;;12.00;96.40;;;;;;5012135;28;20206;-65
2022/09/25 08:49:04;;;;;;;18.03;14.90;;;12.00;96.50;;;;;;4995318;28;20307;-62
2022/09/25 08:51:38;;;;;;;16.83;14.60;;;12.00;96.50;;;;;;5000942;28;20204;-64
2022/09/25 08:54:04;;;;;;;15.30;13.80;;;12.00;96.50;;;;;;5040538;28;20191;-65
2022/09/25 08:56:33;;;;;;;16.67;13.73;;;12.00;96.60;;;;;;4996527;28;20195;-62
2022/09/25 08:59:37;;;;;;;17.27;15.43;;;12.00;96.60;;;;;;5020209;28;20188;-66
2022/09/25 09:02:27;;;;;;;17.27;14.83;;;11.90;96.60;;;;;;5031941;28;20188;-64
2022/09/25 09:04:56;;;;;;;16.77;14.67;;;12.00;96.60;;;;;;4998262;28;20184;-62
2022/09/25 09:07:35;;;;;;;20.40;16.53;;;12.00;96.60;;;;;;5011625;28;20184;-64
2022/09/25 09:10:01;;;;;;;21.47;15.77;;;12.00;96.60;;;;;;5020092;28;20233;-63
2022/09/25 09:12:35;;;;;;;18.90;15.73;;;12.00;96.60;;;;;;5032910;28;20223;-63
2022/09/25 09:15:24;;;;;;;20.63;16.33;;;12.00;96.60;;;;;;5005530;28;20180;-63
2022/09/25 09:17:50;;;;;;;19.17;16.73;;;12.00;96.60;;;;;;5000309;28;20200;-63
2022/09/25 09:20:18;;;;;;;23.93;18.37;;;12.00;96.60;;;;;;5001611;28;20215;-63
2022/09/25 09:22:51;;;;;;;20.40;16.73;;;12.00;96.60;;;;;;5013362;28;20227;-63
2022/09/25 09:25:34;;;;;;;17.83;15.97;;;12.10;96.60;;;;;;5041508;28;20192;-63
2022/09/25 09:28:35;;;;;;;17.00;14.90;;;12.10;96.60;;;;;;5011469;28;20184;-63
2022/09/25 09:31:26;;;;;;;16.67;14.87;;;11.90;96.60;;;;;;5004475;28;20302;-63
2022/09/25 09:34:13;;;;;;;16.90;14.67;;;11.90;96.60;;;;;;5036452;28;20188;-64
2022/09/25 09:36:57;;;;;;;20.30;17.00;;;12.00;96.60;;;;;;5039230;28;20282;-64
2022/09/25 09:39:41;;;;;;;18.37;15.87;;;12.00;96.60;;;;;;5047408;28;20184;-63
2022/09/25 09:42:13;;;;;;;17.13;14.93;;;12.10;96.60;;;;;;5009544;28;20184;-63
2022/09/25 09:44:56;;;;;;;16.63;14.93;;;12.10;96.70;;;;;;5000577;28;20181;-64
2022/09/25 09:47:46;;;;;;;17.80;14.53;;;12.10;96.70;;;;;;5036557;28;20180;-63
2022/09/25 09:50:26;;;;;;;17.17;15.40;;;12.10;96.70;;;;;;5042777;28;20294;-63
2022/09/25 09:53:02;;;;;;;17.07;14.53;;;12.20;96.70;;;;;;5036668;28;20246;-64
2022/09/25 09:55:44;;;;;;;19.57;16.07;;;12.30;96.80;;;;;;5029488;28;20215;-63
2022/09/25 09:58:18;;;;;;;20.93;16.17;;;12.30;96.80;;;;;;5003825;28;20187;-63
2022/09/25 10:00:47;;;;;;;17.67;15.63;;;12.40;96.80;;;;;;5037291;28;20175;-63
2022/09/25 10:03:27;;;;;;;16.77;14.83;;;12.50;96.80;;;;;;5017466;28;20193;-63
2022/09/25 10:06:07;;;;;;;15.97;14.20;;;12.50;96.80;;;;;;5039993;28;20235;-62
2022/09/25 10:08:34;;;;;;;16.03;14.17;;;12.30;96.80;;;;;;5030633;28;20192;-63
2022/09/25 10:11:05;;;;;;;16.43;14.73;;;12.30;96.70;;;;;;5011141;28;20203;-62
2022/09/25 10:13:35;;;;;;;17.87;14.97;;;12.40;96.70;;;;;;5034101;28;20215;-62
2022/09/25 10:16:23;;;;;;;15.97;13.83;;;12.50;96.70;;;;;;5011722;28;20235;-63
2022/09/25 10:19:03;;;;;;;16.97;15.17;;;12.60;96.70;;;;;;5009312;28;20304;-63
2022/09/25 10:21:54;;;;;;;15.13;13.67;;;12.60;96.60;;;;;;4997699;28;20223;-63
2022/09/25 10:24:50;;;;;;;14.50;13.10;;;12.80;96.60;;;;;;5010964;28;20258;-63
2022/09/25 10:27:40;;;;;;;16.97;15.17;;;12.80;96.60;;;;;;5001920;28;20180;-62
2022/09/25 10:30:17;;;;;;;17.67;15.00;;;12.90;96.60;;;;;;5007152;28;20290;-63
2022/09/25 10:33:00;;;;;;;17.97;16.13;;;12.90;96.60;;;;;;5034930;28;20185;-63
2022/09/25 10:35:38;;;;;;;17.60;15.53;;;12.90;96.60;;;;;;5032802;28;20224;-63
2022/09/25 10:38:21;;;;;;;19.57;17.30;;;13.00;96.60;;;;;;5028895;28;20188;-63
2022/09/25 10:41:06;;;;;;;17.97;16.07;;;13.00;96.60;;;;;;5041039;28;20225;-63
2022/09/25 10:43:32;;;;;;;25.60;19.93;;;13.00;96.50;;;;;;5008835;28;20184;-62
2022/09/25 10:46:14;;;;;;;16.63;14.93;;;13.00;96.50;;;;;;5014053;28;20195;-62
2022/09/25 10:51:26;;;;;;;16.77;15.13;;;13.00;96.50;;;;;;5026113;28;20242;-62
2022/09/25 10:54:12;;;;;;;15.07;13.23;;;13.10;96.50;;;;;;5031419;28;20298;-62
2022/09/25 10:56:39;;;;;;;14.10;12.70;;;12.90;96.40;;;;;;4997199;28;20180;-63
2022/09/25 10:59:23;;;;;;;14.33;12.90;;;12.80;96.30;;;;;;5033710;28;20180;-62
2022/09/25 11:01:50;;;;;;;16.20;14.50;;;12.90;96.40;;;;;;5036781;28;20195;-63
2022/09/25 11:04:23;;;;;;;16.40;14.70;;;13.00;96.40;;;;;;5001562;28;20323;-63
2022/09/25 11:06:53;;;;;;;16.27;14.43;;;13.10;96.40;;;;;;5035832;28;20195;-64
2022/09/25 11:09:22;;;;;;;15.80;14.20;;;13.10;96.40;;;;;;5029040;28;20251;-63
2022/09/25 11:11:49;;;;;;;16.90;15.10;;;13.10;96.40;;;;;;5010570;28;20266;-64
2022/09/25 11:14:31;;;;;;;15.23;13.70;;;13.20;96.50;;;;;;5008569;28;20274;-64
2022/09/25 11:16:59;;;;;;;14.17;12.80;;;13.30;96.50;;;;;;4998388;28;20184;-64
2022/09/25 11:19:35;;;;;;;14.63;12.93;;;13.40;96.60;;;;;;5031742;28;20184;-62
2022/09/25 11:22:31;;;;;;;14.30;12.77;;;13.40;96.50;;;;;;5006643;28;20184;-62
2022/09/25 11:25:20;;;;;;;14.87;13.30;;;13.60;96.50;;;;;;4999114;28;20192;-63
2022/09/25 11:28:04;;;;;;;15.10;13.47;;;13.40;96.30;;;;;;5004069;28;20215;-63
2022/09/25 11:30:43;;;;;;;15.67;14.17;;;13.50;96.40;;;;;;5005071;28;20258;-64
2022/09/25 11:33:42;;;;;;;17.73;15.77;;;13.70;96.40;;;;;;5030415;28;20196;-64
2022/09/25 11:36:23;;;;;;;14.60;12.90;;;13.80;96.50;;;;;;5001876;28;20192;-61
2022/09/25 11:42:17;;;;;;;15.80;13.27;;;13.80;96.30;;;;;;5000574;28;20254;-60
2022/09/25 11:44:56;;;;;;;12.43;11.20;;;13.80;96.30;;;;;;5014165;28;20183;-60
2022/09/25 11:47:35;;;;;;;12.17;10.90;;;13.80;96.20;;;;;;5000709;28;20198;-60
2022/09/25 11:50:02;;;;;;;12.03;10.93;;;13.70;96.10;;;;;;5037525;28;20278;-62
2022/09/25 11:52:36;;;;;;;12.47;10.33;;;13.70;96.10;;;;;;5034583;28;20187;-62
2022/09/25 11:55:40;;;;;;;11.60;10.03;;;13.70;96.20;;;;;;5005317;28;20177;-62
2022/09/25 11:58:30;;;;;;;10.83;9.83;;;13.70;96.10;;;;;;5035094;28;20184;-62
2022/09/25 12:01:09;;;;;;;10.17;9.17;;;13.70;96.20;;;;;;5001422;28;20217;-62
2022/09/25 12:03:45;;;;;;;14.97;11.87;;;13.80;96.10;;;;;;5031578;28;20208;-62
2022/09/25 12:06:38;;;;;;;12.70;11.40;;;13.80;96.20;;;;;;5029333;28;20195;-62
2022/09/25 12:09:24;;;;;;;11.40;10.30;;;13.80;96.00;;;;;;5030516;28;20183;-62
2022/09/25 12:12:06;;;;;;;13.23;11.93;;;13.50;95.70;;;;;;5029208;28;20222;-61
2022/09/25 12:14:50;;;;;;;13.30;11.80;;;13.60;95.90;;;;;;5030554;28;20266;-61
2022/09/25 12:17:19;;;;;;;11.83;10.70;;;13.80;96.10;;;;;;5026649;28;20176;-62
2022/09/25 12:19:57;;;;;;;12.50;11.27;;;13.80;96.10;;;;;;5037304;28;20222;-61
2022/09/25 12:22:40;;;;;;;12.73;11.50;;;13.90;96.20;;;;;;5046790;28;20184;-61
2022/09/25 12:25:19;;;;;;;11.97;10.87;;;14.10;96.20;;;;;;5036769;28;20200;-61
2022/09/25 12:28:01;;;;;;;11.50;10.37;;;14.30;96.30;;;;;;4995690;28;20238;-60
2022/09/25 12:30:50;;;;;;;11.53;10.43;;;14.40;96.20;;;;;;5007818;28;20204;-60
2022/09/25 12:33:42;;;;;;;8.43;7.63;;;14.60;96.30;;;;;;5035578;28;20188;-61
2022/09/25 12:36:15;;;;;;;8.03;7.27;;;14.70;96.10;;;;;;5044496;28;20207;-62
2022/09/25 12:39:00;;;;;;;7.33;6.63;;;14.60;95.50;;;;;;5009832;28;20188;-62
2022/09/25 12:41:45;;;;;;;8.37;7.33;;;14.50;95.20;;;;;;5028586;28;20196;-61
2022/09/25 12:44:10;;;;;;;7.47;6.73;;;14.50;95.30;;;;;;5005016;28;20192;-62
2022/09/25 12:46:43;;;;;;;5.77;5.17;;;14.40;94.70;;;;;;5001863;28;20191;-61
2022/09/25 12:49:44;;;;;;;8.17;6.83;;;14.30;94.50;;;;;;5009870;28;20189;-62
2022/09/25 12:52:19;;;;;;;7.27;6.57;;;14.40;94.70;;;;;;5011068;28;20211;-60
2022/09/25 12:54:56;;;;;;;7.50;6.80;;;14.40;94.50;;;;;;5032198;28;20184;-60
2022/09/25 12:57:28;;;;;;;8.00;7.20;;;14.50;95.00;;;;;;5046136;28;20199;-62
2022/09/25 13:00:19;;;;;;;6.17;5.57;;;14.60;95.30;;;;;;4999608;28;20239;-62
2022/09/25 13:03:07;;;;;;;7.27;6.33;;;14.60;94.70;;;;;;5003093;28;20185;-62
2022/09/25 13:05:59;;;;;;;5.20;4.77;;;14.70;94.40;;;;;;4996900;28;20193;-62
2022/09/25 13:08:51;;;;;;;6.07;5.57;;;14.70;94.50;;;;;;5001034;28;20235;-61
2022/09/25 13:11:37;;;;;;;6.13;5.63;;;14.70;94.60;;;;;;4999719;28;20211;-63
2022/09/25 13:14:10;;;;;;;7.37;5.67;;;14.80;95.00;;;;;;4996334;28;20296;-60
2022/09/25 13:16:36;;;;;;;3.93;3.63;;;14.90;95.00;;;;;;5031728;28;20208;-59
2022/09/25 13:19:27;;;;;;;5.77;5.27;;;14.80;93.30;;;;;;5044109;28;20184;-59
2022/09/25 13:22:09;;;;;;;3.70;3.40;;;14.70;93.90;;;;;;5002404;28;20188;-59